sensor_id;sensor_type;location;lat;lon;timestamp;P1;durP1;ratioP1;P2;durP2;ratioP2
24799;SDS011;12897;50.812;4.430;2022-12-07T00:01:31;29.82;;;16.87;;
24799;SDS011;12897;50.812;4.430;2022-12-07T00:04:01;31.77;;;17.10;;
24799;SDS011;12897;50.812;4.430;2022-12-07T00:06:31;27.48;;;16.32;;
24799;SDS011;12897;50.812;4.430;2022-12-07T00:09:00;27.05;;;17.27;;
24799;SDS011;12897;50.812;4.430;2022-12-07T00:11:28;36.33;;;17.50;;
24799;SDS011;12897;50.812;4.430;2022-12-07T00:13:57;31.75;;;18.20;;
24799;SDS011;12897;50.812;4.430;2022-12-07T00:16:27;32.48;;;19.52;;
24799;SDS011;12897;50.812;4.430;2022-12-07T00:18:57;38.83;;;20.52;;
24799;SDS011;12897;50.812;4.430;2022-12-07T00:21:26;32.75;;;18.25;;
24799;SDS011;12897;50.812;4.430;2022-12-07T00:23:56;34.73;;;20.17;;
24799;SDS011;12897;50.812;4.430;2022-12-07T00:26:28;35.95;;;21.57;;
24799;SDS011;12897;50.812;4.430;2022-12-07T00:28:58;34.30;;;20.57;;
24799;SDS011;12897;50.812;4.430;2022-12-07T00:31:28;39.40;;;20.27;;
24799;SDS011;12897;50.812;4.430;2022-12-07T00:33:59;35.58;;;20.55;;
24799;SDS011;12897;50.812;4.430;2022-12-07T00:36:26;37.48;;;20.75;;
24799;SDS011;12897;50.812;4.430;2022-12-07T00:38:54;35.40;;;21.60;;
24799;SDS011;12897;50.812;4.430;2022-12-07T00:41:24;35.40;;;20.57;;
24799;SDS011;12897;50.812;4.430;2022-12-07T00:43:53;36.48;;;21.55;;
24799;SDS011;12897;50.812;4.430;2022-12-07T00:46:21;42.55;;;21.97;;
24799;SDS011;12897;50.812;4.430;2022-12-07T00:48:50;42.35;;;22.55;;
24799;SDS011;12897;50.812;4.430;2022-12-07T00:51:19;38.70;;;20.95;;
24799;SDS011;12897;50.812;4.430;2022-12-07T00:53:48;42.62;;;24.45;;
24799;SDS011;12897;50.812;4.430;2022-12-07T00:56:17;42.98;;;21.10;;
24799;SDS011;12897;50.812;4.430;2022-12-07T00:58:50;36.83;;;21.12;;
24799;SDS011;12897;50.812;4.430;2022-12-07T01:01:20;37.58;;;20.57;;
24799;SDS011;12897;50.812;4.430;2022-12-07T01:03:48;40.92;;;21.45;;
24799;SDS011;12897;50.812;4.430;2022-12-07T01:06:16;38.75;;;21.05;;
24799;SDS011;12897;50.812;4.430;2022-12-07T01:08:45;37.75;;;21.73;;
24799;SDS011;12897;50.812;4.430;2022-12-07T01:11:14;34.73;;;20.95;;
24799;SDS011;12897;50.812;4.430;2022-12-07T01:13:44;32.50;;;20.40;;
24799;SDS011;12897;50.812;4.430;2022-12-07T01:16:12;39.50;;;20.65;;
24799;SDS011;12897;50.812;4.430;2022-12-07T01:18:41;33.33;;;19.53;;
24799;SDS011;12897;50.812;4.430;2022-12-07T01:21:11;33.35;;;19.17;;
24799;SDS011;12897;50.812;4.430;2022-12-07T01:23:41;36.48;;;19.82;;
24799;SDS011;12897;50.812;4.430;2022-12-07T01:26:10;36.48;;;20.10;;
24799;SDS011;12897;50.812;4.430;2022-12-07T01:28:39;39.63;;;19.87;;
24799;SDS011;12897;50.812;4.430;2022-12-07T01:31:08;37.10;;;21.10;;
24799;SDS011;12897;50.812;4.430;2022-12-07T01:33:38;39.50;;;20.48;;
24799;SDS011;12897;50.812;4.430;2022-12-07T01:36:17;32.93;;;19.02;;
24799;SDS011;12897;50.812;4.430;2022-12-07T01:38:48;32.80;;;18.87;;
24799;SDS011;12897;50.812;4.430;2022-12-07T01:41:18;33.13;;;18.55;;
24799;SDS011;12897;50.812;4.430;2022-12-07T01:49:05;36.25;;;18.95;;
24799;SDS011;12897;50.812;4.430;2022-12-07T01:51:35;35.45;;;19.15;;
24799;SDS011;12897;50.812;4.430;2022-12-07T01:54:05;32.48;;;18.15;;
24799;SDS011;12897;50.812;4.430;2022-12-07T01:56:33;38.85;;;18.57;;
24799;SDS011;12897;50.812;4.430;2022-12-07T01:59:02;34.33;;;18.20;;
24799;SDS011;12897;50.812;4.430;2022-12-07T02:01:30;31.25;;;18.65;;
24799;SDS011;12897;50.812;4.430;2022-12-07T02:03:58;33.42;;;18.57;;
24799;SDS011;12897;50.812;4.430;2022-12-07T02:06:25;38.42;;;19.37;;
24799;SDS011;12897;50.812;4.430;2022-12-07T02:08:53;32.05;;;19.02;;
24799;SDS011;12897;50.812;4.430;2022-12-07T02:11:22;37.37;;;19.17;;
24799;SDS011;12897;50.812;4.430;2022-12-07T02:13:50;34.35;;;18.92;;
24799;SDS011;12897;50.812;4.430;2022-12-07T02:16:25;39.58;;;19.27;;
24799;SDS011;12897;50.812;4.430;2022-12-07T02:22:07;30.00;;;18.10;;
24799;SDS011;12897;50.812;4.430;2022-12-07T02:24:53;40.63;;;18.60;;
24799;SDS011;12897;50.812;4.430;2022-12-07T02:30:06;39.78;;;19.32;;
24799;SDS011;12897;50.812;4.430;2022-12-07T02:35:18;35.55;;;19.07;;
24799;SDS011;12897;50.812;4.430;2022-12-07T02:38:01;31.02;;;18.23;;
24799;SDS011;12897;50.812;4.430;2022-12-07T02:40:41;31.87;;;18.30;;
24799;SDS011;12897;50.812;4.430;2022-12-07T02:43:16;31.05;;;17.90;;
24799;SDS011;12897;50.812;4.430;2022-12-07T02:45:44;30.97;;;17.80;;
24799;SDS011;12897;50.812;4.430;2022-12-07T02:48:13;29.95;;;17.90;;
24799;SDS011;12897;50.812;4.430;2022-12-07T02:50:49;37.53;;;18.23;;
24799;SDS011;12897;50.812;4.430;2022-12-07T02:53:32;36.95;;;18.37;;
24799;SDS011;12897;50.812;4.430;2022-12-07T02:56:24;29.18;;;17.27;;
24799;SDS011;12897;50.812;4.430;2022-12-07T02:58:41;30.95;;;17.00;;
24799;SDS011;12897;50.812;4.430;2022-12-07T03:04:03;25.37;;;16.20;;
24799;SDS011;12897;50.812;4.430;2022-12-07T03:06:56;29.52;;;17.00;;
24799;SDS011;12897;50.812;4.430;2022-12-07T03:09:35;26.45;;;16.32;;
24799;SDS011;12897;50.812;4.430;2022-12-07T03:12:06;35.80;;;16.75;;
24799;SDS011;12897;50.812;4.430;2022-12-07T03:14:41;28.52;;;16.90;;
24799;SDS011;12897;50.812;4.430;2022-12-07T03:17:15;31.93;;;16.57;;
24799;SDS011;12897;50.812;4.430;2022-12-07T03:19:44;29.48;;;17.27;;
24799;SDS011;12897;50.812;4.430;2022-12-07T03:22:15;32.63;;;16.65;;
24799;SDS011;12897;50.812;4.430;2022-12-07T03:24:52;28.73;;;16.45;;
24799;SDS011;12897;50.812;4.430;2022-12-07T03:27:24;30.50;;;17.17;;
24799;SDS011;12897;50.812;4.430;2022-12-07T03:29:55;33.85;;;18.42;;
24799;SDS011;12897;50.812;4.430;2022-12-07T03:32:31;29.20;;;17.52;;
24799;SDS011;12897;50.812;4.430;2022-12-07T03:37:44;27.60;;;16.25;;
24799;SDS011;12897;50.812;4.430;2022-12-07T03:43:03;30.02;;;17.90;;
24799;SDS011;12897;50.812;4.430;2022-12-07T03:45:42;30.37;;;17.42;;
24799;SDS011;12897;50.812;4.430;2022-12-07T03:48:19;28.23;;;16.93;;
24799;SDS011;12897;50.812;4.430;2022-12-07T03:53:39;29.92;;;17.25;;
24799;SDS011;12897;50.812;4.430;2022-12-07T03:56:07;33.08;;;17.17;;
24799;SDS011;12897;50.812;4.430;2022-12-07T03:58:37;28.27;;;17.42;;
24799;SDS011;12897;50.812;4.430;2022-12-07T04:01:06;26.80;;;16.85;;
24799;SDS011;12897;50.812;4.430;2022-12-07T04:03:33;31.82;;;17.48;;
24799;SDS011;12897;50.812;4.430;2022-12-07T04:06:01;28.67;;;17.30;;
24799;SDS011;12897;50.812;4.430;2022-12-07T04:08:29;35.85;;;17.27;;
24799;SDS011;12897;50.812;4.430;2022-12-07T04:10:56;33.85;;;19.48;;
24799;SDS011;12897;50.812;4.430;2022-12-07T04:13:24;35.40;;;17.77;;
24799;SDS011;12897;50.812;4.430;2022-12-07T04:15:51;31.45;;;17.73;;
24799;SDS011;12897;50.812;4.430;2022-12-07T04:18:19;32.48;;;18.40;;
24799;SDS011;12897;50.812;4.430;2022-12-07T04:20:46;39.08;;;18.10;;
24799;SDS011;12897;50.812;4.430;2022-12-07T04:23:14;32.17;;;17.75;;
24799;SDS011;12897;50.812;4.430;2022-12-07T04:25:41;30.00;;;16.90;;
24799;SDS011;12897;50.812;4.430;2022-12-07T04:28:09;31.15;;;17.50;;
24799;SDS011;12897;50.812;4.430;2022-12-07T04:30:37;32.10;;;18.25;;
24799;SDS011;12897;50.812;4.430;2022-12-07T04:33:10;27.32;;;16.57;;
24799;SDS011;12897;50.812;4.430;2022-12-07T04:35:34;33.90;;;17.02;;
24799;SDS011;12897;50.812;4.430;2022-12-07T04:38:01;30.85;;;17.12;;
24799;SDS011;12897;50.812;4.430;2022-12-07T04:40:29;30.40;;;17.02;;
24799;SDS011;12897;50.812;4.430;2022-12-07T04:42:56;26.42;;;16.25;;
24799;SDS011;12897;50.812;4.430;2022-12-07T04:45:24;30.20;;;16.45;;
24799;SDS011;12897;50.812;4.430;2022-12-07T04:47:51;34.95;;;17.15;;
24799;SDS011;12897;50.812;4.430;2022-12-07T04:50:19;31.95;;;16.65;;
24799;SDS011;12897;50.812;4.430;2022-12-07T04:52:46;27.80;;;16.25;;
24799;SDS011;12897;50.812;4.430;2022-12-07T04:55:14;28.98;;;17.20;;
24799;SDS011;12897;50.812;4.430;2022-12-07T04:57:42;32.78;;;17.35;;
24799;SDS011;12897;50.812;4.430;2022-12-07T05:00:09;36.15;;;18.35;;
24799;SDS011;12897;50.812;4.430;2022-12-07T05:02:37;36.85;;;18.55;;
24799;SDS011;12897;50.812;4.430;2022-12-07T05:05:08;33.78;;;17.85;;
24799;SDS011;12897;50.812;4.430;2022-12-07T05:07:36;33.90;;;18.20;;
24799;SDS011;12897;50.812;4.430;2022-12-07T05:10:07;32.85;;;17.73;;
24799;SDS011;12897;50.812;4.430;2022-12-07T05:12:34;28.75;;;17.10;;
24799;SDS011;12897;50.812;4.430;2022-12-07T05:15:03;34.03;;;17.45;;
24799;SDS011;12897;50.812;4.430;2022-12-07T05:17:33;29.57;;;17.35;;
24799;SDS011;12897;50.812;4.430;2022-12-07T05:20:00;38.30;;;19.27;;
24799;SDS011;12897;50.812;4.430;2022-12-07T05:22:32;27.82;;;17.52;;
24799;SDS011;12897;50.812;4.430;2022-12-07T05:24:59;28.55;;;17.37;;
24799;SDS011;12897;50.812;4.430;2022-12-07T05:27:27;36.03;;;18.85;;
24799;SDS011;12897;50.812;4.430;2022-12-07T05:29:54;37.83;;;20.20;;
24799;SDS011;12897;50.812;4.430;2022-12-07T05:32:22;35.83;;;19.85;;
24799;SDS011;12897;50.812;4.430;2022-12-07T05:34:49;37.58;;;21.02;;
24799;SDS011;12897;50.812;4.430;2022-12-07T05:37:17;34.38;;;19.50;;
24799;SDS011;12897;50.812;4.430;2022-12-07T05:39:44;31.93;;;18.82;;
24799;SDS011;12897;50.812;4.430;2022-12-07T05:42:12;37.42;;;20.35;;
24799;SDS011;12897;50.812;4.430;2022-12-07T05:44:40;38.40;;;21.27;;
24799;SDS011;12897;50.812;4.430;2022-12-07T05:47:09;28.55;;;18.12;;
24799;SDS011;12897;50.812;4.430;2022-12-07T05:49:37;34.40;;;19.90;;
24799;SDS011;12897;50.812;4.430;2022-12-07T05:52:05;33.83;;;18.15;;
24799;SDS011;12897;50.812;4.430;2022-12-07T05:54:33;30.37;;;16.50;;
24799;SDS011;12897;50.812;4.430;2022-12-07T05:57:01;30.37;;;17.57;;
24799;SDS011;12897;50.812;4.430;2022-12-07T05:59:28;34.10;;;17.42;;
24799;SDS011;12897;50.812;4.430;2022-12-07T06:02:00;30.72;;;18.62;;
24799;SDS011;12897;50.812;4.430;2022-12-07T06:04:30;34.83;;;16.62;;
24799;SDS011;12897;50.812;4.430;2022-12-07T06:09:26;32.08;;;18.42;;
24799;SDS011;12897;50.812;4.430;2022-12-07T06:11:55;35.15;;;16.82;;
24799;SDS011;12897;50.812;4.430;2022-12-07T06:14:41;29.50;;;17.52;;
24799;SDS011;12897;50.812;4.430;2022-12-07T06:17:09;34.65;;;19.02;;
24799;SDS011;12897;50.812;4.430;2022-12-07T06:19:38;29.87;;;18.00;;
24799;SDS011;12897;50.812;4.430;2022-12-07T06:22:05;33.67;;;18.62;;
24799;SDS011;12897;50.812;4.430;2022-12-07T06:24:34;32.40;;;17.77;;
24799;SDS011;12897;50.812;4.430;2022-12-07T06:27:02;33.05;;;17.30;;
24799;SDS011;12897;50.812;4.430;2022-12-07T06:29:30;31.27;;;16.35;;
24799;SDS011;12897;50.812;4.430;2022-12-07T06:31:58;33.13;;;18.60;;
24799;SDS011;12897;50.812;4.430;2022-12-07T06:34:26;37.75;;;18.27;;
24799;SDS011;12897;50.812;4.430;2022-12-07T06:36:54;32.83;;;19.42;;
24799;SDS011;12897;50.812;4.430;2022-12-07T06:39:22;37.88;;;19.23;;
24799;SDS011;12897;50.812;4.430;2022-12-07T06:41:52;41.00;;;20.40;;
24799;SDS011;12897;50.812;4.430;2022-12-07T06:44:20;32.13;;;17.10;;
24799;SDS011;12897;50.812;4.430;2022-12-07T06:46:49;32.48;;;17.02;;
24799;SDS011;12897;50.812;4.430;2022-12-07T06:49:17;37.20;;;18.40;;
24799;SDS011;12897;50.812;4.430;2022-12-07T06:51:45;29.67;;;17.50;;
24799;SDS011;12897;50.812;4.430;2022-12-07T06:54:13;34.43;;;17.30;;
24799;SDS011;12897;50.812;4.430;2022-12-07T06:56:41;31.80;;;16.45;;
24799;SDS011;12897;50.812;4.430;2022-12-07T06:59:10;28.92;;;17.82;;
24799;SDS011;12897;50.812;4.430;2022-12-07T07:01:37;35.28;;;16.27;;
24799;SDS011;12897;50.812;4.430;2022-12-07T07:04:05;29.25;;;15.00;;
24799;SDS011;12897;50.812;4.430;2022-12-07T07:06:32;32.30;;;16.35;;
24799;SDS011;12897;50.812;4.430;2022-12-07T07:09:00;30.27;;;16.75;;
24799;SDS011;12897;50.812;4.430;2022-12-07T07:11:27;32.73;;;16.80;;
24799;SDS011;12897;50.812;4.430;2022-12-07T07:13:55;31.50;;;16.97;;
24799;SDS011;12897;50.812;4.430;2022-12-07T07:16:24;43.93;;;15.57;;
24799;SDS011;12897;50.812;4.430;2022-12-07T07:18:52;26.45;;;14.53;;
24799;SDS011;12897;50.812;4.430;2022-12-07T07:21:19;23.22;;;13.60;;
24799;SDS011;12897;50.812;4.430;2022-12-07T07:23:48;31.70;;;15.00;;
24799;SDS011;12897;50.812;4.430;2022-12-07T07:28:44;30.12;;;14.65;;
24799;SDS011;12897;50.812;4.430;2022-12-07T07:31:11;30.72;;;15.05;;
24799;SDS011;12897;50.812;4.430;2022-12-07T07:33:39;24.70;;;14.85;;
24799;SDS011;12897;50.812;4.430;2022-12-07T07:36:06;29.42;;;15.45;;
24799;SDS011;12897;50.812;4.430;2022-12-07T07:38:34;27.30;;;13.85;;
24799;SDS011;12897;50.812;4.430;2022-12-07T07:41:01;28.55;;;15.43;;
24799;SDS011;12897;50.812;4.430;2022-12-07T07:43:29;23.22;;;14.30;;
24799;SDS011;12897;50.812;4.430;2022-12-07T07:45:56;28.98;;;14.20;;
24799;SDS011;12897;50.812;4.430;2022-12-07T07:48:24;23.57;;;14.53;;
24799;SDS011;12897;50.812;4.430;2022-12-07T07:50:51;32.93;;;16.15;;
24799;SDS011;12897;50.812;4.430;2022-12-07T07:53:19;27.85;;;15.38;;
24799;SDS011;12897;50.812;4.430;2022-12-07T07:55:53;30.23;;;14.83;;
24799;SDS011;12897;50.812;4.430;2022-12-07T07:58:22;26.12;;;14.53;;
24799;SDS011;12897;50.812;4.430;2022-12-07T08:00:49;24.63;;;14.25;;
24799;SDS011;12897;50.812;4.430;2022-12-07T08:03:17;25.37;;;14.13;;
24799;SDS011;12897;50.812;4.430;2022-12-07T08:05:44;29.10;;;15.58;;
24799;SDS011;12897;50.812;4.430;2022-12-07T08:08:12;27.02;;;14.98;;
24799;SDS011;12897;50.812;4.430;2022-12-07T08:10:40;30.72;;;15.05;;
24799;SDS011;12897;50.812;4.430;2022-12-07T08:13:07;29.32;;;15.10;;
24799;SDS011;12897;50.812;4.430;2022-12-07T08:15:43;26.82;;;14.28;;
24799;SDS011;12897;50.812;4.430;2022-12-07T08:18:13;31.05;;;15.05;;
24799;SDS011;12897;50.812;4.430;2022-12-07T08:20:41;26.17;;;14.85;;
24799;SDS011;12897;50.812;4.430;2022-12-07T08:23:09;23.75;;;13.85;;
24799;SDS011;12897;50.812;4.430;2022-12-07T08:25:38;37.33;;;16.12;;
24799;SDS011;12897;50.812;4.430;2022-12-07T08:28:07;33.60;;;15.53;;
24799;SDS011;12897;50.812;4.430;2022-12-07T08:30:35;33.55;;;15.98;;
24799;SDS011;12897;50.812;4.430;2022-12-07T08:33:02;27.05;;;15.28;;
24799;SDS011;12897;50.812;4.430;2022-12-07T08:35:32;27.98;;;15.72;;
24799;SDS011;12897;50.812;4.430;2022-12-07T08:38:00;30.02;;;16.30;;
24799;SDS011;12897;50.812;4.430;2022-12-07T08:40:28;31.93;;;15.98;;
24799;SDS011;12897;50.812;4.430;2022-12-07T08:42:58;27.35;;;16.00;;
24799;SDS011;12897;50.812;4.430;2022-12-07T08:45:28;28.77;;;15.73;;
24799;SDS011;12897;50.812;4.430;2022-12-07T08:50:25;33.35;;;15.10;;
24799;SDS011;12897;50.812;4.430;2022-12-07T08:52:55;29.98;;;15.85;;
24799;SDS011;12897;50.812;4.430;2022-12-07T08:55:24;25.92;;;16.00;;
24799;SDS011;12897;50.812;4.430;2022-12-07T08:57:53;35.95;;;16.15;;
24799;SDS011;12897;50.812;4.430;2022-12-07T09:00:20;30.37;;;14.68;;
24799;SDS011;12897;50.812;4.430;2022-12-07T09:02:50;39.55;;;20.12;;
24799;SDS011;12897;50.812;4.430;2022-12-07T09:05:19;34.47;;;15.53;;
24799;SDS011;12897;50.812;4.430;2022-12-07T09:07:48;29.57;;;13.13;;
24799;SDS011;12897;50.812;4.430;2022-12-07T09:10:17;29.60;;;13.38;;
24799;SDS011;12897;50.812;4.430;2022-12-07T09:12:45;25.75;;;12.75;;
24799;SDS011;12897;50.812;4.430;2022-12-07T09:15:13;21.80;;;12.70;;
24799;SDS011;12897;50.812;4.430;2022-12-07T09:17:40;22.93;;;11.85;;
24799;SDS011;12897;50.812;4.430;2022-12-07T09:20:08;19.65;;;12.03;;
24799;SDS011;12897;50.812;4.430;2022-12-07T09:22:36;23.77;;;11.97;;
24799;SDS011;12897;50.812;4.430;2022-12-07T09:25:03;38.17;;;17.02;;
24799;SDS011;12897;50.812;4.430;2022-12-07T09:27:31;22.48;;;11.18;;
24799;SDS011;12897;50.812;4.430;2022-12-07T09:29:59;24.77;;;12.30;;
24799;SDS011;12897;50.812;4.430;2022-12-07T09:32:30;21.35;;;10.82;;
24799;SDS011;12897;50.812;4.430;2022-12-07T09:35:03;18.90;;;10.00;;
24799;SDS011;12897;50.812;4.430;2022-12-07T09:37:27;17.62;;;10.80;;
24799;SDS011;12897;50.812;4.430;2022-12-07T09:39:54;20.12;;;10.90;;
24799;SDS011;12897;50.812;4.430;2022-12-07T09:42:38;23.90;;;10.70;;
24799;SDS011;12897;50.812;4.430;2022-12-07T09:45:19;18.35;;;10.08;;
24799;SDS011;12897;50.812;4.430;2022-12-07T09:47:43;22.55;;;10.38;;
24799;SDS011;12897;50.812;4.430;2022-12-07T09:50:15;22.35;;;10.60;;
24799;SDS011;12897;50.812;4.430;2022-12-07T09:52:47;17.77;;;9.63;;
24799;SDS011;12897;50.812;4.430;2022-12-07T09:55:18;23.35;;;9.98;;
24799;SDS011;12897;50.812;4.430;2022-12-07T09:57:52;19.90;;;10.35;;
24799;SDS011;12897;50.812;4.430;2022-12-07T10:00:21;26.70;;;10.60;;
24799;SDS011;12897;50.812;4.430;2022-12-07T10:07:58;22.82;;;10.28;;
24799;SDS011;12897;50.812;4.430;2022-12-07T10:10:29;19.92;;;8.93;;
24799;SDS011;12897;50.812;4.430;2022-12-07T10:13:01;22.58;;;9.65;;
24799;SDS011;12897;50.812;4.430;2022-12-07T10:15:44;15.75;;;9.00;;
24799;SDS011;12897;50.812;4.430;2022-12-07T10:21:10;27.53;;;9.10;;
24799;SDS011;12897;50.812;4.430;2022-12-07T10:23:58;17.77;;;8.78;;
24799;SDS011;12897;50.812;4.430;2022-12-07T10:26:35;20.48;;;9.93;;
24799;SDS011;12897;50.812;4.430;2022-12-07T10:31:54;20.50;;;9.18;;
24799;SDS011;12897;50.812;4.430;2022-12-07T10:34:23;23.55;;;9.58;;
24799;SDS011;12897;50.812;4.430;2022-12-07T10:37:06;24.25;;;9.10;;
24799;SDS011;12897;50.812;4.430;2022-12-07T10:39:41;29.07;;;11.57;;
24799;SDS011;12897;50.812;4.430;2022-12-07T10:42:18;24.40;;;9.80;;
24799;SDS011;12897;50.812;4.430;2022-12-07T10:44:50;20.45;;;9.68;;
24799;SDS011;12897;50.812;4.430;2022-12-07T10:50:35;20.82;;;8.95;;
24799;SDS011;12897;50.812;4.430;2022-12-07T10:58:52;26.75;;;8.98;;
24799;SDS011;12897;50.812;4.430;2022-12-07T11:01:33;16.67;;;8.58;;
24799;SDS011;12897;50.812;4.430;2022-12-07T11:09:39;24.37;;;9.10;;
24799;SDS011;12897;50.812;4.430;2022-12-07T11:12:31;24.12;;;9.98;;
24799;SDS011;12897;50.812;4.430;2022-12-07T11:15:01;20.35;;;8.33;;
24799;SDS011;12897;50.812;4.430;2022-12-07T11:23:29;19.48;;;7.53;;
24799;SDS011;12897;50.812;4.430;2022-12-07T11:26:31;15.85;;;7.22;;
24799;SDS011;12897;50.812;4.430;2022-12-07T11:29:31;21.50;;;7.92;;
24799;SDS011;12897;50.812;4.430;2022-12-07T11:37:31;14.30;;;7.40;;
24799;SDS011;12897;50.812;4.430;2022-12-07T11:42:52;21.60;;;8.15;;
24799;SDS011;12897;50.812;4.430;2022-12-07T11:45:31;17.65;;;7.70;;
24799;SDS011;12897;50.812;4.430;2022-12-07T11:48:02;20.82;;;8.63;;
24799;SDS011;12897;50.812;4.430;2022-12-07T11:50:40;16.45;;;7.78;;
24799;SDS011;12897;50.812;4.430;2022-12-07T11:58:42;17.95;;;6.83;;
24799;SDS011;12897;50.812;4.430;2022-12-07T12:06:41;13.75;;;6.87;;
24799;SDS011;12897;50.812;4.430;2022-12-07T12:14:43;17.70;;;6.20;;
24799;SDS011;12897;50.812;4.430;2022-12-07T12:17:50;21.93;;;7.12;;
24799;SDS011;12897;50.812;4.430;2022-12-07T12:20:29;14.23;;;5.65;;
24799;SDS011;12897;50.812;4.430;2022-12-07T12:23:05;16.67;;;4.67;;
24799;SDS011;12897;50.812;4.430;2022-12-07T12:25:29;12.63;;;4.20;;
24799;SDS011;12897;50.812;4.430;2022-12-07T12:27:59;11.83;;;4.20;;
24799;SDS011;12897;50.812;4.430;2022-12-07T12:33:02;19.73;;;4.08;;
24799;SDS011;12897;50.812;4.430;2022-12-07T12:35:35;10.70;;;3.70;;
24799;SDS011;12897;50.812;4.430;2022-12-07T12:41:00;9.08;;;3.62;;
24799;SDS011;12897;50.812;4.430;2022-12-07T12:43:44;14.43;;;3.65;;
24799;SDS011;12897;50.812;4.430;2022-12-07T12:51:47;17.90;;;3.83;;
24799;SDS011;12897;50.812;4.430;2022-12-07T12:54:20;14.15;;;4.33;;
24799;SDS011;12897;50.812;4.430;2022-12-07T12:56:58;8.83;;;3.45;;
24799;SDS011;12897;50.812;4.430;2022-12-07T13:16:38;8.63;;;2.12;;
24799;SDS011;12897;50.812;4.430;2022-12-07T13:20:58;6.67;;;2.75;;
24799;SDS011;12897;50.812;4.430;2022-12-07T13:23:37;14.13;;;3.27;;
24799;SDS011;12897;50.812;4.430;2022-12-07T13:28:48;12.88;;;3.45;;
24799;SDS011;12897;50.812;4.430;2022-12-07T13:31:40;15.00;;;3.40;;
24799;SDS011;12897;50.812;4.430;2022-12-07T13:37:25;19.23;;;3.77;;
24799;SDS011;12897;50.812;4.430;2022-12-07T13:39:49;14.90;;;3.85;;
24799;SDS011;12897;50.812;4.430;2022-12-07T13:42:27;13.93;;;4.42;;
24799;SDS011;12897;50.812;4.430;2022-12-07T13:44:57;9.25;;;4.60;;
24799;SDS011;12897;50.812;4.430;2022-12-07T13:47:35;9.20;;;3.20;;
24799;SDS011;12897;50.812;4.430;2022-12-07T13:50:21;13.43;;;3.55;;
24799;SDS011;12897;50.812;4.430;2022-12-07T13:52:49;12.33;;;3.98;;
24799;SDS011;12897;50.812;4.430;2022-12-07T13:55:17;10.00;;;3.72;;
24799;SDS011;12897;50.812;4.430;2022-12-07T13:57:44;12.18;;;3.47;;
24799;SDS011;12897;50.812;4.430;2022-12-07T14:00:16;13.75;;;4.00;;
24799;SDS011;12897;50.812;4.430;2022-12-07T14:02:59;12.07;;;4.55;;
24799;SDS011;12897;50.812;4.430;2022-12-07T14:05:32;9.48;;;3.65;;
24799;SDS011;12897;50.812;4.430;2022-12-07T14:08:02;14.45;;;5.00;;
24799;SDS011;12897;50.812;4.430;2022-12-07T14:10:32;12.00;;;4.80;;
24799;SDS011;12897;50.812;4.430;2022-12-07T14:16:54;11.70;;;4.85;;
24799;SDS011;12897;50.812;4.430;2022-12-07T14:18:53;15.30;;;4.87;;
24799;SDS011;12897;50.812;4.430;2022-12-07T14:21:23;8.38;;;2.33;;
24799;SDS011;12897;50.812;4.430;2022-12-07T14:24:57;5.80;;;3.10;;
24799;SDS011;12897;50.812;4.430;2022-12-07T14:26:38;8.45;;;3.12;;
24799;SDS011;12897;50.812;4.430;2022-12-07T14:29:19;13.55;;;3.22;;
24799;SDS011;12897;50.812;4.430;2022-12-07T14:31:54;9.20;;;2.65;;
24799;SDS011;12897;50.812;4.430;2022-12-07T14:34:23;8.33;;;2.77;;
24799;SDS011;12897;50.812;4.430;2022-12-07T14:36:51;11.97;;;3.30;;
24799;SDS011;12897;50.812;4.430;2022-12-07T14:39:19;9.98;;;3.08;;
24799;SDS011;12897;50.812;4.430;2022-12-07T14:41:46;12.23;;;3.40;;
24799;SDS011;12897;50.812;4.430;2022-12-07T14:44:18;13.43;;;3.90;;
24799;SDS011;12897;50.812;4.430;2022-12-07T14:46:47;15.35;;;4.25;;
24799;SDS011;12897;50.812;4.430;2022-12-07T14:49:15;14.60;;;3.87;;
24799;SDS011;12897;50.812;4.430;2022-12-07T14:51:43;12.82;;;3.65;;
24799;SDS011;12897;50.812;4.430;2022-12-07T14:56:44;13.55;;;3.92;;
24799;SDS011;12897;50.812;4.430;2022-12-07T14:59:15;16.37;;;4.62;;
24799;SDS011;12897;50.812;4.430;2022-12-07T15:01:43;12.35;;;3.60;;
24799;SDS011;12897;50.812;4.430;2022-12-07T15:04:10;9.68;;;3.33;;
24799;SDS011;12897;50.812;4.430;2022-12-07T15:06:38;10.58;;;3.08;;
24799;SDS011;12897;50.812;4.430;2022-12-07T15:09:08;7.58;;;3.05;;
24799;SDS011;12897;50.812;4.430;2022-12-07T15:11:37;9.80;;;3.00;;
24799;SDS011;12897;50.812;4.430;2022-12-07T15:14:04;9.10;;;3.37;;
24799;SDS011;12897;50.812;4.430;2022-12-07T15:16:37;12.63;;;3.55;;
24799;SDS011;12897;50.812;4.430;2022-12-07T15:21:37;10.30;;;3.67;;
24799;SDS011;12897;50.812;4.430;2022-12-07T15:24:06;8.35;;;3.10;;
24799;SDS011;12897;50.812;4.430;2022-12-07T15:26:35;12.07;;;2.92;;
24799;SDS011;12897;50.812;4.430;2022-12-07T15:29:02;16.55;;;4.12;;
24799;SDS011;12897;50.812;4.430;2022-12-07T15:31:30;11.12;;;3.12;;
24799;SDS011;12897;50.812;4.430;2022-12-07T15:33:58;15.32;;;3.08;;
24799;SDS011;12897;50.812;4.430;2022-12-07T15:36:27;13.28;;;3.60;;
24799;SDS011;12897;50.812;4.430;2022-12-07T15:38:56;12.80;;;3.80;;
24799;SDS011;12897;50.812;4.430;2022-12-07T15:41:24;16.07;;;4.00;;
24799;SDS011;12897;50.812;4.430;2022-12-07T15:43:52;12.85;;;4.22;;
24799;SDS011;12897;50.812;4.430;2022-12-07T15:46:42;14.93;;;3.85;;
24799;SDS011;12897;50.812;4.430;2022-12-07T15:51:36;18.80;;;5.17;;
24799;SDS011;12897;50.812;4.430;2022-12-07T15:54:03;15.30;;;4.67;;
24799;SDS011;12897;50.812;4.430;2022-12-07T15:56:31;17.73;;;4.65;;
24799;SDS011;12897;50.812;4.430;2022-12-07T15:58:59;23.12;;;6.25;;
24799;SDS011;12897;50.812;4.430;2022-12-07T16:01:26;12.78;;;5.22;;
24799;SDS011;12897;50.812;4.430;2022-12-07T16:03:54;12.95;;;4.78;;
24799;SDS011;12897;50.812;4.430;2022-12-07T16:06:24;11.53;;;4.37;;
24799;SDS011;12897;50.812;4.430;2022-12-07T16:08:52;11.10;;;4.45;;
24799;SDS011;12897;50.812;4.430;2022-12-07T16:11:20;10.25;;;4.45;;
24799;SDS011;12897;50.812;4.430;2022-12-07T16:13:48;15.65;;;5.15;;
24799;SDS011;12897;50.812;4.430;2022-12-07T16:16:17;11.15;;;4.50;;
24799;SDS011;12897;50.812;4.430;2022-12-07T16:18:48;11.12;;;5.12;;
24799;SDS011;12897;50.812;4.430;2022-12-07T16:21:16;9.20;;;5.78;;
24799;SDS011;12897;50.812;4.430;2022-12-07T16:23:44;10.75;;;6.03;;
24799;SDS011;12897;50.812;4.430;2022-12-07T16:26:13;17.37;;;8.28;;
24799;SDS011;12897;50.812;4.430;2022-12-07T16:28:42;10.25;;;6.25;;
24799;SDS011;12897;50.812;4.430;2022-12-07T16:31:11;11.85;;;6.03;;
24799;SDS011;12897;50.812;4.430;2022-12-07T16:33:41;16.30;;;6.62;;
24799;SDS011;12897;50.812;4.430;2022-12-07T16:36:10;16.05;;;6.45;;
24799;SDS011;12897;50.812;4.430;2022-12-07T16:38:39;10.88;;;6.35;;
24799;SDS011;12897;50.812;4.430;2022-12-07T16:41:07;14.05;;;6.78;;
24799;SDS011;12897;50.812;4.430;2022-12-07T16:43:35;16.45;;;6.95;;
24799;SDS011;12897;50.812;4.430;2022-12-07T16:46:04;16.67;;;7.60;;
24799;SDS011;12897;50.812;4.430;2022-12-07T16:48:34;12.88;;;6.30;;
24799;SDS011;12897;50.812;4.430;2022-12-07T16:51:05;12.28;;;6.95;;
24799;SDS011;12897;50.812;4.430;2022-12-07T16:53:38;14.15;;;6.85;;
24799;SDS011;12897;50.812;4.430;2022-12-07T16:56:11;14.78;;;6.70;;
24799;SDS011;12897;50.812;4.430;2022-12-07T16:58:40;13.20;;;7.22;;
24799;SDS011;12897;50.812;4.430;2022-12-07T17:01:14;16.12;;;7.95;;